Time;durP1;ratioP1;P1;durP2;ratioP2;P2;SDS_P1;SDS_P2;PMS_P1;PMS_P2;Temp;Humidity;BMP_temperature;BMP_pressure;BME280_temperature;BME280_humidity;BME280_pressure;Samples;Min_cycle;Max_cycle;Signal;HPM_P1;HPM_P2
2024/04/05 00:00:13;;;;;;;5.67;3.27;;;19.80;66.40;;;;;;5129899;27;20505;-79
2024/04/05 00:02:41;;;;;;;7.07;3.33;;;19.90;66.40;;;;;;5116110;28;20436;-79
2024/04/05 00:05:10;;;;;;;5.87;3.07;;;19.90;66.50;;;;;;5118516;27;20448;-79
2024/04/05 00:07:37;;;;;;;5.60;2.90;;;19.90;66.50;;;;;;5115561;28;20443;-78
2024/04/05 00:10:05;;;;;;;8.90;3.00;;;19.90;66.30;;;;;;5121694;27;20492;-79
2024/04/05 00:12:31;;;;;;;7.53;2.60;;;19.90;66.20;;;;;;5100049;28;20445;-79
2024/04/05 00:14:58;;;;;;;5.87;2.73;;;19.80;66.30;;;;;;5098426;28;20441;-79
2024/04/05 00:17:25;;;;;;;7.90;3.10;;;19.90;66.20;;;;;;5108982;28;20432;-79
2024/04/05 00:19:53;;;;;;;5.73;3.00;;;19.80;66.20;;;;;;5108170;28;20472;-79
2024/04/05 00:22:20;;;;;;;9.73;3.20;;;19.80;66.30;;;;;;5106687;28;20433;-80
2024/04/05 00:24:48;;;;;;;7.50;3.07;;;19.80;66.40;;;;;;5101534;28;20456;-80
2024/04/05 00:27:14;;;;;;;8.57;3.10;;;19.80;66.40;;;;;;5105145;28;20448;-80
2024/04/05 00:29:41;;;;;;;4.50;3.27;;;19.80;66.20;;;;;;5108343;28;20436;-79
2024/04/05 00:32:07;;;;;;;10.97;3.23;;;19.80;66.40;;;;;;5109855;28;20432;-80
2024/04/05 00:34:34;;;;;;;4.80;3.03;;;19.80;66.50;;;;;;5117582;28;20442;-80
2024/04/05 00:37:02;;;;;;;5.10;3.10;;;19.80;66.40;;;;;;5115051;28;20475;-80
2024/04/05 00:39:29;;;;;;;5.67;3.20;;;19.80;66.50;;;;;;5116191;28;20471;-79
2024/04/05 00:41:55;;;;;;;7.03;3.30;;;19.80;66.40;;;;;;5098293;28;20448;-79
2024/04/05 00:44:23;;;;;;;4.13;2.60;;;19.80;66.40;;;;;;5098705;28;20441;-79
2024/04/05 00:46:50;;;;;;;8.67;3.40;;;19.80;66.40;;;;;;5104195;28;20456;-79
2024/04/05 00:49:18;;;;;;;11.20;2.87;;;19.80;66.50;;;;;;5107357;28;20444;-80
2024/04/05 00:51:44;;;;;;;6.90;3.27;;;19.80;66.40;;;;;;5098174;28;20448;-80
2024/04/05 00:54:12;;;;;;;16.00;3.40;;;19.80;66.30;;;;;;5107040;28;20441;-81
2024/04/05 00:56:38;;;;;;;8.70;3.50;;;19.80;66.30;;;;;;5109409;28;20965;-80
2024/04/05 00:59:06;;;;;;;8.30;3.30;;;19.80;66.30;;;;;;5112391;28;20469;-81
2024/04/05 01:01:32;;;;;;;7.37;3.10;;;19.80;66.30;;;;;;5114349;28;20447;-80
2024/04/05 01:03:59;;;;;;;16.23;3.13;;;19.80;66.20;;;;;;5105028;28;20955;-80
2024/04/05 01:06:25;;;;;;;10.73;3.83;;;19.80;66.20;;;;;;5107146;28;20468;-80
2024/04/05 01:08:52;;;;;;;7.13;2.93;;;19.80;66.20;;;;;;5112068;28;20458;-81
2024/04/05 01:11:20;;;;;;;6.50;2.80;;;19.80;66.20;;;;;;5100741;28;20433;-80
2024/04/05 01:13:48;;;;;;;6.70;3.03;;;19.80;66.30;;;;;;5098250;28;20441;-81
2024/04/05 01:16:14;;;;;;;20.03;4.37;;;19.80;66.20;;;;;;5115050;28;20460;-80
2024/04/05 01:18:42;;;;;;;9.40;2.87;;;19.80;66.20;;;;;;5118290;28;20432;-81
2024/04/05 01:21:08;;;;;;;8.03;2.97;;;19.80;66.20;;;;;;5118301;28;20432;-80
2024/04/05 01:23:41;;;;;;;11.93;3.33;;;19.80;66.20;;;;;;5118948;27;20461;-79
2024/04/05 01:26:07;;;;;;;9.97;4.10;;;19.80;66.30;;;;;;5123199;27;20459;-81
2024/04/05 01:28:34;;;;;;;9.63;3.00;;;19.80;66.30;;;;;;5118489;28;20436;-81
2024/04/05 01:31:00;;;;;;;10.37;3.63;;;19.80;66.20;;;;;;5118463;28;20432;-80
2024/04/05 01:33:27;;;;;;;7.13;2.60;;;19.80;66.30;;;;;;5118363;28;20446;-80
2024/04/05 01:35:53;;;;;;;7.27;3.10;;;19.70;66.30;;;;;;5118444;28;20448;-80
2024/04/05 01:38:21;;;;;;;4.57;3.00;;;19.80;66.30;;;;;;5117723;28;20446;-82
2024/04/05 01:40:48;;;;;;;10.23;3.10;;;19.70;66.30;;;;;;5118777;28;20241;-81
2024/04/05 01:43:15;;;;;;;6.33;2.67;;;19.70;66.30;;;;;;5118400;28;20432;-79
2024/04/05 01:45:42;;;;;;;11.63;3.93;;;19.70;66.30;;;;;;5118130;28;20464;-80
2024/04/05 01:48:09;;;;;;;6.70;2.87;;;19.70;66.30;;;;;;5117608;28;20436;-80
2024/04/05 01:50:35;;;;;;;11.27;3.70;;;19.70;66.20;;;;;;5117870;28;20436;-80
2024/04/05 01:53:02;;;;;;;7.70;2.80;;;19.70;66.30;;;;;;5117704;28;20431;-81
2024/04/05 01:55:29;;;;;;;9.70;3.40;;;19.70;66.30;;;;;;5117579;28;20459;-81
2024/04/05 01:57:57;;;;;;;7.30;3.10;;;19.70;66.30;;;;;;5118115;28;20431;-80
2024/04/05 02:00:23;;;;;;;9.13;3.47;;;19.70;66.10;;;;;;5117670;28;20468;-80
2024/04/05 02:02:51;;;;;;;7.90;3.17;;;19.70;66.20;;;;;;5117624;28;20446;-81
2024/04/05 02:05:17;;;;;;;9.37;3.80;;;19.70;66.40;;;;;;5117600;28;20470;-80
2024/04/05 02:07:44;;;;;;;6.33;2.83;;;19.70;66.20;;;;;;5116936;28;20436;-80
2024/04/05 02:10:10;;;;;;;8.63;3.10;;;19.70;66.10;;;;;;5116508;28;20443;-79
2024/04/05 02:12:37;;;;;;;9.37;3.17;;;19.70;66.10;;;;;;5117302;28;20446;-79
2024/04/05 02:15:05;;;;;;;11.10;3.10;;;19.70;66.10;;;;;;5116906;28;20436;-80
2024/04/05 02:17:33;;;;;;;10.93;3.40;;;19.70;66.30;;;;;;5116768;28;20436;-80
2024/04/05 02:19:59;;;;;;;8.43;3.40;;;19.70;66.10;;;;;;5116154;28;20986;-80
2024/04/05 02:22:26;;;;;;;7.60;3.43;;;19.70;66.10;;;;;;5116044;28;20438;-79
2024/04/05 02:24:52;;;;;;;8.03;2.93;;;19.70;66.10;;;;;;5117500;28;20778;-79
2024/04/05 02:27:19;;;;;;;8.30;2.90;;;19.70;66.10;;;;;;5117928;28;20447;-80
2024/04/05 02:29:45;;;;;;;8.60;3.17;;;19.70;66.30;;;;;;5116563;28;20450;-81
2024/04/05 02:32:14;;;;;;;12.83;3.40;;;19.60;66.20;;;;;;5116732;28;20428;-80
2024/04/05 02:34:40;;;;;;;6.93;2.50;;;19.60;66.20;;;;;;5112221;28;20203;-80
2024/04/05 02:37:08;;;;;;;8.70;2.93;;;19.60;66.10;;;;;;5110845;28;20460;-80
2024/04/05 02:39:34;;;;;;;5.57;2.70;;;19.60;66.10;;;;;;5110776;28;20219;-80
2024/04/05 02:42:00;;;;;;;8.50;3.43;;;19.60;66.30;;;;;;5104568;28;20463;-80
2024/04/05 02:44:26;;;;;;;8.83;3.30;;;19.60;66.30;;;;;;5096245;28;20452;-80
2024/04/05 02:46:53;;;;;;;10.40;3.07;;;19.60;66.20;;;;;;5101209;28;20493;-80
2024/04/05 02:49:21;;;;;;;7.00;2.93;;;19.60;66.10;;;;;;5120449;27;20201;-80
2024/04/05 02:51:48;;;;;;;9.40;2.83;;;19.60;66.20;;;;;;5108614;28;20474;-80
2024/04/05 02:54:13;;;;;;;10.43;3.20;;;19.60;66.20;;;;;;5096928;28;20451;-80
2024/04/05 02:56:41;;;;;;;6.20;2.97;;;19.60;66.30;;;;;;5096689;28;20464;-80
2024/04/05 02:59:07;;;;;;;8.83;3.00;;;19.50;66.10;;;;;;5108695;28;20478;-81
2024/04/05 03:01:34;;;;;;;7.27;3.17;;;19.50;66.30;;;;;;5115854;28;20440;-80
2024/04/05 03:04:00;;;;;;;7.23;3.00;;;19.50;66.40;;;;;;5109198;28;20444;-80
2024/04/05 03:06:28;;;;;;;7.77;2.80;;;19.50;66.30;;;;;;5100047;28;20490;-80
2024/04/05 03:08:54;;;;;;;9.47;3.43;;;19.50;66.30;;;;;;5110489;28;20436;-80
2024/04/05 03:11:22;;;;;;;7.83;2.97;;;19.50;66.20;;;;;;5109945;28;20424;-78
2024/04/05 03:13:50;;;;;;;6.60;2.83;;;19.50;66.40;;;;;;5106500;28;20927;-80
2024/04/05 03:16:18;;;;;;;10.03;3.13;;;19.50;66.50;;;;;;5103138;28;20477;-80
2024/04/05 03:18:44;;;;;;;7.87;3.00;;;19.50;66.20;;;;;;5117631;28;20436;-79
2024/04/05 03:21:11;;;;;;;9.73;3.27;;;19.50;66.40;;;;;;5117330;28;20546;-80
2024/04/05 03:23:39;;;;;;;10.43;3.30;;;19.50;66.40;;;;;;5113959;28;20440;-80
2024/04/05 03:26:06;;;;;;;13.50;3.50;;;19.50;66.50;;;;;;5096645;28;20452;-79
2024/04/05 03:28:32;;;;;;;9.13;3.27;;;19.50;66.80;;;;;;5095686;28;20444;-79
2024/04/05 03:31:03;;;;;;;7.20;2.80;;;19.50;66.50;;;;;;5096851;28;20441;-79
2024/04/05 03:33:31;;;;;;;12.90;3.10;;;19.50;66.40;;;;;;5103803;28;20448;-79
2024/04/05 03:36:03;;;;;;;7.97;2.67;;;19.40;66.40;;;;;;5108432;28;20487;-81
2024/04/05 03:38:30;;;;;;;8.70;3.17;;;19.40;66.50;;;;;;5116296;28;20444;-80
2024/04/05 03:41:00;;;;;;;7.00;2.77;;;19.40;66.60;;;;;;5108842;28;20474;-78
2024/04/05 03:43:27;;;;;;;10.67;3.03;;;19.40;66.40;;;;;;5116693;28;20431;-81
2024/04/05 03:45:54;;;;;;;6.17;2.60;;;19.40;66.60;;;;;;5117905;28;20456;-80
2024/04/05 03:48:21;;;;;;;5.03;2.77;;;19.40;66.50;;;;;;5120461;28;20436;-80
2024/04/05 03:50:47;;;;;;;8.33;3.17;;;19.40;66.70;;;;;;5106078;28;20452;-80
2024/04/05 03:53:14;;;;;;;8.57;3.20;;;19.40;66.60;;;;;;5117793;28;20447;-81
2024/04/05 03:55:41;;;;;;;6.13;2.97;;;19.40;66.50;;;;;;5117247;28;20460;-81
2024/04/05 03:58:10;;;;;;;7.73;2.90;;;19.40;66.60;;;;;;5098601;28;21236;-80
2024/04/05 04:00:37;;;;;;;8.20;2.90;;;19.40;66.60;;;;;;5108116;28;20487;-80
2024/04/05 04:03:05;;;;;;;7.63;3.20;;;19.40;66.60;;;;;;5102731;28;20452;-82
2024/04/05 04:05:31;;;;;;;5.97;3.10;;;19.40;66.40;;;;;;5105820;28;20464;-81
2024/04/05 04:08:05;;;;;;;5.10;2.47;;;19.40;66.40;;;;;;5099590;28;20436;-81
2024/04/05 04:10:32;;;;;;;5.80;2.47;;;19.40;66.50;;;;;;5104419;28;20447;-80
2024/04/05 04:13:01;;;;;;;9.70;2.77;;;19.40;66.70;;;;;;5102520;28;20444;-81
2024/04/05 04:15:30;;;;;;;8.83;2.50;;;19.40;66.60;;;;;;5118935;28;20456;-80
2024/04/05 04:17:57;;;;;;;10.27;3.03;;;19.40;66.50;;;;;;5118762;28;20432;-82
2024/04/05 04:20:23;;;;;;;7.13;3.00;;;19.40;66.50;;;;;;5100159;28;20473;-81
2024/04/05 04:22:51;;;;;;;8.63;2.90;;;19.40;66.40;;;;;;5099327;28;20475;-82
2024/04/05 04:25:17;;;;;;;9.07;2.60;;;19.30;66.40;;;;;;5113793;28;20448;-81
2024/04/05 04:27:44;;;;;;;9.80;3.00;;;19.30;66.40;;;;;;5109973;28;20441;-80
2024/04/05 04:30:14;;;;;;;7.27;3.17;;;19.30;66.40;;;;;;5107480;28;20494;-81
2024/04/05 04:32:43;;;;;;;7.33;2.83;;;19.30;66.30;;;;;;5102351;28;20433;-81
2024/04/05 04:35:09;;;;;;;12.67;3.10;;;19.30;66.40;;;;;;5115600;28;20445;-80
2024/04/05 04:37:37;;;;;;;8.23;2.30;;;19.30;66.50;;;;;;5116941;28;20444;-80
2024/04/05 04:40:04;;;;;;;8.27;3.10;;;19.30;66.50;;;;;;5117358;28;20990;-81
2024/04/05 04:42:42;;;;;;;8.40;2.73;;;19.30;66.30;;;;;;5110177;28;20432;-80
2024/04/05 04:45:10;;;;;;;10.67;3.47;;;19.30;66.50;;;;;;5103742;28;20941;-81
2024/04/05 04:47:41;;;;;;;7.23;3.13;;;19.30;66.40;;;;;;5112979;28;20441;-79
2024/04/05 04:50:10;;;;;;;10.03;3.50;;;19.30;66.60;;;;;;5115112;28;21050;-81
2024/04/05 04:52:37;;;;;;;7.40;2.70;;;19.30;66.50;;;;;;5098967;28;20441;-79
2024/04/05 04:55:04;;;;;;;4.77;2.67;;;19.30;66.40;;;;;;5100443;28;20436;-80
2024/04/05 04:57:32;;;;;;;5.90;2.80;;;19.30;66.40;;;;;;5115583;28;20439;-81
2024/04/05 04:59:58;;;;;;;7.87;3.07;;;19.30;66.30;;;;;;5104583;28;20475;-80
2024/04/05 05:02:25;;;;;;;7.03;3.00;;;19.30;66.40;;;;;;5111866;28;20432;-80
2024/04/05 05:04:51;;;;;;;9.53;3.07;;;19.30;66.40;;;;;;5117252;28;20440;-80
2024/04/05 05:07:20;;;;;;;8.20;3.00;;;19.30;66.60;;;;;;5113686;28;20520;-81
2024/04/05 05:09:46;;;;;;;7.83;3.00;;;19.30;66.20;;;;;;5120640;28;20444;-81
2024/04/05 05:12:13;;;;;;;5.57;2.43;;;19.30;66.30;;;;;;5116678;28;20445;-82
2024/04/05 05:14:40;;;;;;;6.80;2.60;;;19.30;66.40;;;;;;5109560;28;20470;-81
2024/04/05 05:17:07;;;;;;;5.40;2.50;;;19.30;66.30;;;;;;5111666;28;20459;-81
2024/04/05 05:19:33;;;;;;;8.83;2.70;;;19.30;66.10;;;;;;5111351;28;20440;-81
2024/04/05 05:22:00;;;;;;;4.10;2.60;;;19.30;66.20;;;;;;5102609;28;20475;-79
2024/04/05 05:24:28;;;;;;;7.50;2.60;;;19.30;66.00;;;;;;5098179;28;20437;-82
2024/04/05 05:26:55;;;;;;;9.50;3.17;;;19.30;65.90;;;;;;5111151;28;20476;-81
2024/04/05 05:29:21;;;;;;;12.00;3.17;;;19.30;66.20;;;;;;5107669;28;20440;-79
2024/04/05 05:31:48;;;;;;;7.13;2.63;;;19.30;66.10;;;;;;5107968;28;20474;-81
2024/04/05 05:34:15;;;;;;;7.67;2.70;;;19.30;66.30;;;;;;5105057;28;20439;-80
2024/04/05 05:36:42;;;;;;;9.87;3.00;;;19.30;66.30;;;;;;5103243;28;20469;-81
2024/04/05 05:39:11;;;;;;;7.17;2.23;;;19.30;66.00;;;;;;5108350;28;20441;-80
2024/04/05 05:41:40;;;;;;;9.27;3.10;;;19.40;66.20;;;;;;5115603;28;20459;-81
2024/04/05 05:44:06;;;;;;;12.20;3.00;;;19.40;66.10;;;;;;5115925;28;20445;-80
2024/04/05 05:46:36;;;;;;;6.57;2.50;;;19.40;65.90;;;;;;5107541;28;20462;-81
2024/04/05 05:49:03;;;;;;;7.10;2.70;;;19.40;66.00;;;;;;5106032;28;20935;-80
2024/04/05 05:51:30;;;;;;;7.00;2.70;;;19.40;66.00;;;;;;5114031;28;20850;-81
2024/04/05 05:53:56;;;;;;;13.33;3.27;;;19.40;65.80;;;;;;5105851;28;20441;-80
2024/04/05 05:56:23;;;;;;;10.70;2.80;;;19.40;65.80;;;;;;5117476;28;20456;-81
2024/04/05 05:58:50;;;;;;;7.67;3.13;;;19.40;66.00;;;;;;5099949;28;20445;-81
2024/04/05 06:01:18;;;;;;;10.20;3.50;;;19.40;65.80;;;;;;5103978;28;20464;-81
2024/04/05 06:03:44;;;;;;;9.90;2.63;;;19.40;65.80;;;;;;5112428;27;20452;-81
2024/04/05 06:06:11;;;;;;;7.50;2.87;;;19.40;65.90;;;;;;5126290;27;20486;-81
2024/04/05 06:08:39;;;;;;;6.10;2.43;;;19.40;65.80;;;;;;5111040;28;20443;-80
2024/04/05 06:11:06;;;;;;;6.83;2.50;;;19.40;65.80;;;;;;5112080;28;20440;-82
2024/04/05 06:13:33;;;;;;;11.63;3.00;;;19.40;65.80;;;;;;5112717;28;20441;-81
2024/04/05 06:16:02;;;;;;;9.60;2.90;;;19.40;65.90;;;;;;5110330;28;20469;-80
2024/04/05 06:18:28;;;;;;;11.53;3.03;;;19.40;65.80;;;;;;5106512;28;20445;-81
2024/04/05 06:20:56;;;;;;;7.60;2.67;;;19.40;65.80;;;;;;5116875;28;20472;-81
2024/04/05 06:23:22;;;;;;;11.37;2.83;;;19.40;65.90;;;;;;5110944;28;20443;-80
2024/04/05 06:25:54;;;;;;;8.77;2.70;;;19.40;66.00;;;;;;5117647;28;20460;-80
2024/04/05 06:28:20;;;;;;;7.93;3.10;;;19.40;66.00;;;;;;5109825;28;20436;-80
2024/04/05 06:30:47;;;;;;;6.63;3.07;;;19.40;65.80;;;;;;5111040;28;20436;-80
2024/04/05 06:33:15;;;;;;;7.90;2.80;;;19.40;65.90;;;;;;5113058;28;20436;-80
2024/04/05 06:35:42;;;;;;;9.43;2.90;;;19.50;65.80;;;;;;5110493;28;20467;-80
2024/04/05 06:38:09;;;;;;;11.17;3.33;;;19.50;65.80;;;;;;5097922;28;20455;-80
2024/04/05 06:40:36;;;;;;;8.13;3.03;;;19.50;65.80;;;;;;5102395;28;20468;-80
2024/04/05 06:43:02;;;;;;;11.73;3.17;;;19.50;65.80;;;;;;5103956;28;20433;-77
2024/04/05 06:45:30;;;;;;;7.67;3.03;;;19.50;65.90;;;;;;5099414;28;20469;-79
2024/04/05 06:47:56;;;;;;;12.90;3.33;;;19.60;65.80;;;;;;5098165;28;20433;-79
2024/04/05 06:50:25;;;;;;;11.63;3.30;;;19.60;65.70;;;;;;5104134;28;20436;-79
2024/04/05 06:52:55;;;;;;;10.93;3.20;;;19.70;65.70;;;;;;5105941;28;20443;-79
2024/04/05 06:55:23;;;;;;;10.10;3.10;;;19.70;65.60;;;;;;5121074;27;20459;-80
2024/04/05 06:57:50;;;;;;;10.40;3.20;;;19.70;65.40;;;;;;5100896;28;20437;-81
2024/04/05 07:00:17;;;;;;;11.43;3.20;;;19.80;65.50;;;;;;5117358;28;20443;-81
2024/04/05 07:02:44;;;;;;;7.87;2.97;;;19.80;65.40;;;;;;5100020;28;20444;-80
2024/04/05 07:05:11;;;;;;;7.30;2.67;;;19.90;65.50;;;;;;5106933;28;20444;-80
2024/04/05 07:07:39;;;;;;;6.77;2.57;;;20.00;65.40;;;;;;5100498;28;20428;-79
2024/04/05 07:10:07;;;;;;;8.27;2.77;;;20.00;65.20;;;;;;5095366;28;20441;-80
2024/04/05 07:12:34;;;;;;;10.23;2.80;;;20.00;65.00;;;;;;5094930;28;20931;-80
2024/04/05 07:15:01;;;;;;;10.23;2.90;;;20.10;65.10;;;;;;5095145;28;20436;-79
2024/04/05 07:17:28;;;;;;;8.13;2.70;;;20.10;65.00;;;;;;5095818;28;20433;-80
2024/04/05 07:19:54;;;;;;;10.23;3.37;;;20.10;65.00;;;;;;5095713;28;20757;-80
2024/04/05 07:22:21;;;;;;;10.47;3.10;;;20.20;65.10;;;;;;5098910;28;20460;-78
2024/04/05 07:24:49;;;;;;;9.27;3.10;;;20.30;64.80;;;;;;5098696;28;20437;-81
2024/04/05 07:27:16;;;;;;;12.77;2.60;;;20.40;64.80;;;;;;5099554;28;20468;-81
2024/04/05 07:29:43;;;;;;;9.30;3.40;;;20.40;64.70;;;;;;5099662;28;20438;-79
2024/04/05 07:32:10;;;;;;;7.60;2.80;;;20.40;64.60;;;;;;5099701;28;20436;-80
2024/04/05 07:34:37;;;;;;;7.60;2.60;;;20.50;64.70;;;;;;5099485;28;20436;-79
2024/04/05 07:37:04;;;;;;;10.20;2.80;;;20.60;64.40;;;;;;5099287;28;20456;-80
2024/04/05 07:39:30;;;;;;;11.70;3.33;;;20.60;64.70;;;;;;5100209;28;20441;-80
2024/04/05 07:41:59;;;;;;;9.53;3.53;;;20.70;64.70;;;;;;5099075;28;20468;-80
2024/04/05 07:44:25;;;;;;;11.50;3.60;;;20.80;65.10;;;;;;5099561;28;20456;-80
2024/04/05 07:46:52;;;;;;;10.67;3.80;;;21.00;65.10;;;;;;5099142;28;20455;-80
2024/04/05 07:49:19;;;;;;;12.80;3.23;;;21.00;65.00;;;;;;5099043;28;20440;-79
2024/04/05 07:51:45;;;;;;;14.53;3.70;;;21.10;64.80;;;;;;5098374;28;20446;-81
2024/04/05 07:54:14;;;;;;;10.93;3.30;;;21.10;65.10;;;;;;5098825;28;20432;-81
2024/04/05 07:56:40;;;;;;;8.43;3.10;;;21.20;64.90;;;;;;5099862;28;20239;-81
2024/04/05 07:59:09;;;;;;;12.93;3.43;;;21.30;65.70;;;;;;5099194;28;20499;-81
2024/04/05 08:01:34;;;;;;;10.33;3.20;;;21.30;64.70;;;;;;5099724;28;20224;-82
2024/04/05 08:04:02;;;;;;;8.00;3.20;;;21.40;65.00;;;;;;5101434;28;20433;-79
2024/04/05 08:06:28;;;;;;;11.47;3.40;;;21.40;64.80;;;;;;5108597;28;20461;-80
2024/04/05 08:08:55;;;;;;;13.37;3.10;;;21.50;65.20;;;;;;5109330;27;20428;-79
2024/04/05 08:11:22;;;;;;;14.20;3.70;;;21.50;64.90;;;;;;5105340;28;20432;-80
2024/04/05 08:13:51;;;;;;;8.30;2.80;;;21.50;64.80;;;;;;5119040;28;20432;-78
2024/04/05 08:16:20;;;;;;;14.37;3.37;;;21.50;65.20;;;;;;5119697;28;20463;-79
2024/04/05 08:18:47;;;;;;;11.43;3.73;;;21.50;65.00;;;;;;5120322;28;20427;-80
2024/04/05 08:21:13;;;;;;;7.50;2.90;;;21.60;65.10;;;;;;5119046;28;20452;-79
2024/04/05 08:23:40;;;;;;;10.23;3.70;;;21.60;64.90;;;;;;5120989;28;20432;-81
2024/04/05 08:26:06;;;;;;;9.23;3.20;;;21.60;65.00;;;;;;5119149;28;20466;-81
2024/04/05 08:28:33;;;;;;;8.27;3.13;;;21.60;65.10;;;;;;5119193;28;20519;-80
2024/04/05 08:30:59;;;;;;;9.20;3.00;;;21.70;65.30;;;;;;5109951;28;20466;-80
2024/04/05 08:33:28;;;;;;;11.60;3.10;;;21.70;64.90;;;;;;5115028;28;20433;-82
2024/04/05 08:35:54;;;;;;;8.13;3.20;;;21.70;65.30;;;;;;5104392;28;20456;-82
2024/04/05 08:38:21;;;;;;;10.97;3.30;;;21.80;65.00;;;;;;5119931;28;20440;-78
2024/04/05 08:40:47;;;;;;;10.20;3.20;;;21.80;65.20;;;;;;5103149;28;20456;-78
2024/04/05 08:43:16;;;;;;;8.83;3.10;;;21.90;65.20;;;;;;5124897;27;20431;-79
2024/04/05 08:45:42;;;;;;;19.50;5.13;;;21.90;65.20;;;;;;5120531;28;20456;-80
2024/04/05 08:48:09;;;;;;;14.17;5.17;;;21.50;64.20;;;;;;5122061;28;20432;-81
2024/04/05 08:50:41;;;;;;;11.80;4.20;;;20.50;67.50;;;;;;5124819;28;20447;-80
2024/04/05 08:53:09;;;;;;;15.00;5.03;;;19.80;70.20;;;;;;5126438;28;20432;-82
2024/04/05 08:55:35;;;;;;;20.67;5.40;;;18.90;74.90;;;;;;5126633;28;20462;-81
2024/04/05 08:58:02;;;;;;;16.80;5.20;;;18.80;78.70;;;;;;5126293;28;20442;-81
2024/04/05 09:00:28;;;;;;;12.70;4.90;;;18.70;78.90;;;;;;5125917;28;20458;-81
2024/04/05 09:02:56;;;;;;;14.83;5.13;;;18.50;80.40;;;;;;5121372;27;20437;-82
2024/04/05 09:05:24;;;;;;;12.50;4.70;;;18.60;81.70;;;;;;5120725;28;20459;-80
2024/04/05 09:08:02;;;;;;;16.50;5.20;;;18.50;84.10;;;;;;5121078;28;20415;-78
2024/04/05 09:11:19;;;;;;;16.97;4.80;;;18.50;83.30;;;;;;5121425;28;20439;-80
2024/04/05 09:13:58;;;;;;;17.40;5.97;;;18.50;83.80;;;;;;5071893;27;20436;-80
2024/04/05 09:16:27;;;;;;;18.30;5.20;;;18.60;83.90;;;;;;5120459;28;20857;-77
2024/04/05 09:19:03;;;;;;;14.30;5.53;;;18.50;84.50;;;;;;5137530;27;20435;-79
2024/04/05 09:21:34;;;;;;;15.10;4.80;;;18.50;87.00;;;;;;5145130;27;20458;-77
2024/04/05 09:24:06;;;;;;;18.00;5.87;;;18.70;87.60;;;;;;5144695;27;20445;-84
2024/04/05 09:26:35;;;;;;;19.47;5.77;;;18.50;86.80;;;;;;5146600;27;20458;-81
2024/04/05 09:29:01;;;;;;;18.50;6.23;;;18.50;88.70;;;;;;5143560;27;20442;-82
2024/04/05 09:31:29;;;;;;;17.00;5.23;;;18.50;89.00;;;;;;5124068;27;20436;-81
2024/04/05 09:34:05;;;;;;;10.33;4.37;;;18.20;90.00;;;;;;5107038;28;20440;-80
2024/04/05 09:36:35;;;;;;;9.80;3.87;;;18.20;89.70;;;;;;5111694;28;20468;-80
2024/04/05 09:39:05;;;;;;;9.90;4.17;;;18.20;90.90;;;;;;5124728;28;20420;-79
2024/04/05 09:41:33;;;;;;;14.73;4.60;;;18.00;91.70;;;;;;5123570;28;20464;-81
2024/04/05 09:44:01;;;;;;;12.60;4.60;;;18.20;91.50;;;;;;5117668;28;20436;-79
2024/04/05 09:46:29;;;;;;;16.17;5.13;;;18.00;91.70;;;;;;5103037;28;20842;-79
2024/04/05 09:48:58;;;;;;;17.10;5.20;;;17.80;92.00;;;;;;5102191;28;20439;-81
2024/04/05 09:51:32;;;;;;;11.33;4.77;;;17.80;92.80;;;;;;5120405;28;20436;-80
2024/04/05 09:53:58;;;;;;;17.13;4.90;;;18.00;93.10;;;;;;5117594;28;20436;-80
2024/04/05 09:56:26;;;;;;;14.17;5.03;;;18.00;92.40;;;;;;5119206;28;20460;-81
2024/04/05 09:58:53;;;;;;;10.40;4.50;;;17.90;92.90;;;;;;5117119;28;20440;-83
2024/04/05 10:01:20;;;;;;;15.00;4.33;;;18.30;94.80;;;;;;5113658;28;20455;-83
2024/04/05 10:03:47;;;;;;;12.17;4.50;;;19.10;92.40;;;;;;5119662;28;20415;-86
2024/04/05 10:06:15;;;;;;;12.43;3.80;;;19.70;89.80;;;;;;5138239;28;20440;-84
2024/04/05 10:08:41;;;;;;;11.70;3.40;;;20.20;85.90;;;;;;5138454;28;20432;-85
2024/04/05 10:11:12;;;;;;;11.03;3.87;;;20.50;83.10;;;;;;5139079;28;20419;-85
2024/04/05 10:13:39;;;;;;;10.60;3.57;;;20.80;80.80;;;;;;5132224;28;20444;-86
2024/04/05 10:16:07;;;;;;;9.77;2.93;;;21.00;78.80;;;;;;5139129;28;20446;-87
2024/04/05 10:18:34;;;;;;;9.50;2.93;;;21.20;77.70;;;;;;5139331;28;20418;-84
2024/04/05 10:21:02;;;;;;;10.00;2.90;;;21.30;76.40;;;;;;5132153;28;20431;-83
2024/04/05 10:23:28;;;;;;;12.30;3.17;;;21.40;75.60;;;;;;5130134;28;20421;-84
2024/04/05 10:25:56;;;;;;;9.27;3.17;;;21.40;74.60;;;;;;5122275;28;20449;-82
2024/04/05 10:28:22;;;;;;;7.90;2.37;;;21.50;74.00;;;;;;5107170;28;20437;-83
2024/04/05 10:30:51;;;;;;;7.90;2.60;;;21.60;73.10;;;;;;5112641;28;20466;-83
2024/04/05 10:33:18;;;;;;;12.03;2.77;;;21.70;72.60;;;;;;5118025;28;20436;-82
2024/04/05 10:35:46;;;;;;;7.00;3.13;;;21.70;72.20;;;;;;5118982;28;20455;-83
2024/04/05 10:38:12;;;;;;;9.40;2.63;;;21.70;71.80;;;;;;5122339;27;20440;-83
2024/04/05 10:40:39;;;;;;;10.40;2.90;;;21.80;71.60;;;;;;5120358;28;20436;-82
2024/04/05 10:43:09;;;;;;;4.60;2.00;;;21.80;71.40;;;;;;5108383;28;20473;-82
2024/04/05 10:45:36;;;;;;;7.60;2.60;;;21.80;71.30;;;;;;5107089;28;20459;-83
2024/04/05 10:48:05;;;;;;;7.07;2.50;;;21.80;71.20;;;;;;5115629;27;20431;-82
2024/04/05 10:50:37;;;;;;;6.07;2.43;;;21.80;70.70;;;;;;5106873;28;20440;-83
2024/04/05 10:53:03;;;;;;;6.27;2.33;;;21.80;70.80;;;;;;5118756;28;20461;-83
2024/04/05 10:55:30;;;;;;;5.67;2.70;;;21.80;70.80;;;;;;5118528;28;20456;-82
2024/04/05 10:57:56;;;;;;;7.20;2.83;;;21.80;71.20;;;;;;5130977;27;20435;-79
2024/04/05 11:00:23;;;;;;;10.37;2.57;;;21.80;70.70;;;;;;5136599;28;20438;-81
2024/04/05 11:02:50;;;;;;;6.17;2.20;;;21.90;70.30;;;;;;5140098;28;20459;-77
2024/04/05 11:05:21;;;;;;;5.47;2.60;;;21.90;70.20;;;;;;5137929;28;20431;-80
2024/04/05 11:08:04;;;;;;;4.80;2.80;;;21.80;70.20;;;;;;5139668;28;20435;-83
2024/04/05 11:10:35;;;;;;;5.70;2.50;;;21.80;70.40;;;;;;5138990;27;20438;-83
2024/04/05 11:13:16;;;;;;;6.90;2.60;;;21.80;70.10;;;;;;5140622;28;20446;-83
2024/04/05 11:15:43;;;;;;;4.53;2.67;;;21.80;70.40;;;;;;5139363;28;20433;-85
2024/04/05 11:18:10;;;;;;;5.93;2.60;;;21.80;70.80;;;;;;5141388;28;20436;-84
2024/04/05 11:20:39;;;;;;;9.83;2.93;;;21.70;70.50;;;;;;5135785;27;20436;-83
2024/04/05 11:23:06;;;;;;;3.60;2.20;;;21.70;70.70;;;;;;5121022;28;20472;-85
2024/04/05 11:25:34;;;;;;;4.10;2.60;;;21.70;70.70;;;;;;5127716;28;20426;-85
2024/04/05 11:28:10;;;;;;;3.30;2.10;;;21.70;70.70;;;;;;5131258;28;20444;-85
2024/04/05 11:30:40;;;;;;;5.30;2.13;;;21.70;71.00;;;;;;5125240;28;20433;-83
2024/04/05 11:33:07;;;;;;;4.33;2.50;;;21.70;71.40;;;;;;5127367;27;20439;-83
2024/04/05 11:35:34;;;;;;;9.80;2.90;;;21.70;71.40;;;;;;5123544;28;20460;-84
2024/04/05 11:38:05;;;;;;;7.23;2.50;;;21.70;71.30;;;;;;5111372;28;20445;-83
2024/04/05 11:40:32;;;;;;;6.97;2.57;;;21.80;71.40;;;;;;5110466;28;20440;-84
2024/04/05 11:42:58;;;;;;;8.60;2.30;;;21.80;71.20;;;;;;5112561;28;20460;-84
2024/04/05 11:45:25;;;;;;;8.43;2.67;;;21.80;71.10;;;;;;5116144;28;20484;-83
2024/04/05 11:47:51;;;;;;;6.30;2.37;;;21.80;71.20;;;;;;5106584;28;20441;-82
2024/04/05 11:50:18;;;;;;;4.33;2.30;;;21.80;71.10;;;;;;5106929;28;20444;-82
2024/04/05 11:52:45;;;;;;;6.33;2.20;;;21.80;71.10;;;;;;5110479;28;20428;-84
2024/04/05 11:55:13;;;;;;;6.13;2.70;;;21.80;71.10;;;;;;5106313;28;20420;-84
2024/04/05 11:57:39;;;;;;;6.93;1.80;;;21.90;71.20;;;;;;5112108;28;20437;-83
2024/04/05 12:00:10;;;;;;;8.10;2.67;;;21.90;71.10;;;;;;5115426;28;20431;-83
2024/04/05 12:02:36;;;;;;;4.00;1.80;;;22.00;71.00;;;;;;5119128;28;20468;-82
2024/04/05 12:05:04;;;;;;;6.03;2.60;;;22.00;70.70;;;;;;5113034;28;20456;-81
2024/04/05 12:07:30;;;;;;;3.17;2.10;;;22.00;70.60;;;;;;5114151;28;20428;-81
2024/04/05 12:09:58;;;;;;;4.37;2.30;;;22.00;70.90;;;;;;5112632;28;20419;-83
2024/04/05 12:12:26;;;;;;;6.60;2.40;;;22.00;70.90;;;;;;5114202;28;20429;-81
2024/04/05 12:14:53;;;;;;;9.90;2.50;;;22.00;70.60;;;;;;5109240;28;20477;-81
2024/04/05 12:17:19;;;;;;;5.80;2.20;;;22.00;71.00;;;;;;5113469;27;20456;-82
2024/04/05 12:19:48;;;;;;;6.53;1.90;;;22.00;71.20;;;;;;5110185;28;20495;-82
2024/04/05 12:22:14;;;;;;;3.30;1.90;;;22.00;71.20;;;;;;5115067;27;20457;-82
2024/04/05 12:24:41;;;;;;;7.10;2.53;;;22.10;71.10;;;;;;5110984;28;20494;-83
2024/04/05 12:27:08;;;;;;;4.20;1.87;;;22.10;71.20;;;;;;5112221;28;20452;-82
2024/04/05 12:29:36;;;;;;;4.27;2.20;;;22.10;71.10;;;;;;5111467;28;20939;-82
2024/04/05 12:32:03;;;;;;;5.03;2.30;;;22.10;71.00;;;;;;5109928;27;20432;-82
2024/04/05 12:34:30;;;;;;;4.10;1.80;;;22.10;71.10;;;;;;5120055;28;20832;-81
2024/04/05 12:36:56;;;;;;;2.70;1.87;;;22.10;71.50;;;;;;5119687;28;20456;-81
2024/04/05 12:39:28;;;;;;;3.33;1.97;;;22.00;71.50;;;;;;5119600;28;20651;-81
2024/04/05 12:41:54;;;;;;;4.33;2.37;;;22.00;71.60;;;;;;5119163;28;20475;-81
2024/04/05 12:44:21;;;;;;;3.43;1.63;;;22.00;72.00;;;;;;5119602;28;20440;-81